createdAt,value
2019-04-21T00:02:03.394Z,15.67
2019-04-21T00:05:06.154Z,18.73
2019-04-21T00:08:07.485Z,17.37
2019-04-21T00:10:58.846Z,13.60
2019-04-21T00:13:44.699Z,17.97
2019-04-21T00:16:24.676Z,12.70
2019-04-21T00:19:26.098Z,15.90
2019-04-21T00:22:23.505Z,16.10
2019-04-21T00:25:21.030Z,12.23
2019-04-21T00:28:17.009Z,11.47
2019-04-21T00:31:06.025Z,18.10
2019-04-21T00:33:46.075Z,14.77
2019-04-21T00:36:47.556Z,14.87
2019-04-21T00:39:58.797Z,17.27
2019-04-21T00:42:34.303Z,14.27
2019-04-21T00:45:26.358Z,17.63
2019-04-21T00:48:23.323Z,15.07
2019-04-21T00:54:13.127Z,13.90
2019-04-21T00:57:05.382Z,17.10
2019-04-21T00:59:46.389Z,15.37
2019-04-21T01:02:45.442Z,15.73
2019-04-21T01:05:35.245Z,20.40
2019-04-21T01:08:30.298Z,19.10
2019-04-21T01:11:17.908Z,15.60
2019-04-21T01:14:12.778Z,10.63
2019-04-21T01:17:02.315Z,11.33
2019-04-21T01:19:45.202Z,9.00
2019-04-21T01:22:21.506Z,17.67
2019-04-21T01:25:22.634Z,14.57
2019-04-21T01:28:19.905Z,14.83
2019-04-21T01:31:15.246Z,13.00
2019-04-21T01:34:08.336Z,10.03
2019-04-21T01:36:58.873Z,12.20
2019-04-21T01:39:53.351Z,10.33
2019-04-21T01:42:45.518Z,10.80
2019-04-21T01:45:34.158Z,17.77
2019-04-21T01:48:27.385Z,11.33
2019-04-21T01:51:14.314Z,12.00
2019-04-21T01:54:35.203Z,13.77
2019-04-21T01:57:31.923Z,13.50
2019-04-21T02:03:53.166Z,14.37
2019-04-21T02:06:40.321Z,11.33
2019-04-21T02:09:38.018Z,11.23
2019-04-21T02:12:29.979Z,12.23
2019-04-21T02:15:23.938Z,11.30
2019-04-21T02:18:11.975Z,12.23
2019-04-21T02:20:55.315Z,12.40
2019-04-21T02:24:01.677Z,15.70
2019-04-21T02:26:49.421Z,8.73
2019-04-21T02:29:40.676Z,11.27
2019-04-21T02:32:43.696Z,11.03
2019-04-21T02:38:29.773Z,12.10
2019-04-21T02:41:12.834Z,8.40
2019-04-21T02:44:08.331Z,12.43
2019-04-21T02:47:24.035Z,11.73
2019-04-21T02:52:50.064Z,7.43
2019-04-21T02:55:36.810Z,9.03
2019-04-21T02:58:52.959Z,9.20
2019-04-21T03:04:46.697Z,10.80
2019-04-21T03:07:34.090Z,11.90
2019-04-21T03:10:38.653Z,8.50
2019-04-21T03:19:06.352Z,8.90
2019-04-21T03:21:57.634Z,8.83
2019-04-21T03:30:58.717Z,8.03
2019-04-21T03:34:05.679Z,8.07
2019-04-21T03:39:05.401Z,10.07
2019-04-21T03:44:57.054Z,6.70
2019-04-21T03:47:34.574Z,12.50
2019-04-21T03:53:26.579Z,10.30
2019-04-21T03:56:44.516Z,9.50
2019-04-21T03:59:09.964Z,8.73
2019-04-21T04:05:34.607Z,11.80
2019-04-21T04:08:08.730Z,11.10
2019-04-21T04:11:14.426Z,7.13
2019-04-21T04:14:01.936Z,7.17
2019-04-21T04:16:49.814Z,9.47
2019-04-21T04:19:42.034Z,14.63
2019-04-21T04:25:20.990Z,7.10
2019-04-21T04:28:28.740Z,7.80
2019-04-21T04:31:11.959Z,8.20
2019-04-21T04:33:56.958Z,8.80
2019-04-21T04:36:58.456Z,5.87
2019-04-21T04:40:03.494Z,7.83
2019-04-21T04:42:56.864Z,6.50
2019-04-21T04:45:58.982Z,13.20
2019-04-21T04:48:45.965Z,8.67
2019-04-21T04:51:47.952Z,6.67
2019-04-21T04:54:40.062Z,6.27
2019-04-21T04:57:21.813Z,4.93
2019-04-21T05:02:55.950Z,9.43
2019-04-21T05:09:17.953Z,11.03
2019-04-21T05:15:04.112Z,7.50
2019-04-21T05:17:50.890Z,7.20
2019-04-21T05:20:49.238Z,5.90
2019-04-21T05:23:24.663Z,7.97
2019-04-21T05:26:13.335Z,10.20
2019-04-21T05:29:02.166Z,7.20
2019-04-21T05:32:08.097Z,7.63
2019-04-21T05:35:01.580Z,13.07
2019-04-21T05:38:01.311Z,6.40
2019-04-21T05:40:48.285Z,10.07
2019-04-21T05:43:46.542Z,7.13
2019-04-21T05:46:40.789Z,8.80
2019-04-21T05:49:35.430Z,9.97
2019-04-21T05:52:22.925Z,9.77
2019-04-21T05:55:26.181Z,8.13
2019-04-21T05:58:09.772Z,6.90
2019-04-21T06:01:14.878Z,7.30
2019-04-21T06:04:03.956Z,10.63
2019-04-21T06:06:56.885Z,12.67
2019-04-21T06:09:52.502Z,6.70
2019-04-21T06:12:40.657Z,6.80
2019-04-21T06:15:41.535Z,13.40
2019-04-21T06:18:27.094Z,6.27
2019-04-21T06:21:31.442Z,12.17
2019-04-21T06:24:06.166Z,6.20
2019-04-21T06:29:49.140Z,8.43
2019-04-21T06:36:11.488Z,5.23
2019-04-21T06:41:49.251Z,5.73
2019-04-21T06:44:43.485Z,13.07
2019-04-21T06:47:40.731Z,8.87
2019-04-21T06:50:22.878Z,9.53
2019-04-21T06:53:10.810Z,7.17
2019-04-21T06:56:06.097Z,8.57
2019-04-21T06:58:55.939Z,5.90
2019-04-21T07:01:48.804Z,6.37
2019-04-21T07:04:42.640Z,10.37
2019-04-21T07:07:29.058Z,6.20
2019-04-21T07:13:14.050Z,6.67
2019-04-21T07:16:10.758Z,7.20
2019-04-21T07:19:09.912Z,10.60
2019-04-21T07:21:51.095Z,5.83
2019-04-21T07:24:42.869Z,4.87
2019-04-21T07:27:41.276Z,8.10
2019-04-21T07:30:29.410Z,7.17
2019-04-21T07:33:41.528Z,6.53
2019-04-21T07:36:11.509Z,6.13
2019-04-21T07:39:01.953Z,6.53
2019-04-21T07:41:55.838Z,5.60
2019-04-21T07:44:44.728Z,5.80
2019-04-21T07:47:53.451Z,7.97
2019-04-21T07:50:57.764Z,6.17
2019-04-21T07:53:55.376Z,5.73
2019-04-21T07:56:33.001Z,6.47
2019-04-21T08:02:23.292Z,7.07
2019-04-21T08:05:20.591Z,5.40
2019-04-21T08:08:05.194Z,15.10
2019-04-21T08:10:57.326Z,5.07
2019-04-21T08:13:55.067Z,4.73
2019-04-21T08:16:46.064Z,8.20
2019-04-21T08:19:39.896Z,8.10
2019-04-21T08:22:33.433Z,6.50
2019-04-21T08:25:21.858Z,6.30
2019-04-21T08:30:51.992Z,5.03
2019-04-21T08:33:48.019Z,4.70
2019-04-21T08:39:28.843Z,5.97
2019-04-21T08:42:23.928Z,9.13
2019-04-21T08:45:15.270Z,5.30
2019-04-21T08:50:57.430Z,6.63
2019-04-21T08:53:50.584Z,4.73
2019-04-21T08:56:54.474Z,8.40
2019-04-21T09:00:19.858Z,8.57
2019-04-21T09:03:14.662Z,5.33
2019-04-21T09:06:16.974Z,5.97
2019-04-21T09:09:01.627Z,4.75
2019-04-21T09:11:54.164Z,4.15
2019-04-21T09:14:41.940Z,3.92
2019-04-21T09:17:28.526Z,6.35
2019-04-21T09:20:26.567Z,3.62
2019-04-21T09:23:13.557Z,5.28
2019-04-21T09:26:06.050Z,6.75
2019-04-21T09:28:51.917Z,5.45
2019-04-21T09:31:39.173Z,3.45
2019-04-21T09:34:32.215Z,4.47
2019-04-21T09:37:29.931Z,3.42
2019-04-21T09:40:12.200Z,6.75
2019-04-21T09:43:07.407Z,4.40
2019-04-21T09:45:54.134Z,14.03
2019-04-21T09:48:53.868Z,4.58
2019-04-21T09:51:37.181Z,4.97
2019-04-21T09:54:31.260Z,4.60
2019-04-21T09:57:27.533Z,3.02
2019-04-21T10:00:16.456Z,3.85
2019-04-21T10:03:08.418Z,5.47
2019-04-21T10:05:56.371Z,5.17
2019-04-21T10:08:51.538Z,6.20
2019-04-21T10:11:38.948Z,4.45
2019-04-21T10:14:30.855Z,5.70
2019-04-21T10:17:29.586Z,4.03
2019-04-21T10:20:20.264Z,3.58
2019-04-21T10:23:11.383Z,4.03
2019-04-21T10:26:02.049Z,3.60
2019-04-21T10:28:53.059Z,4.60
2019-04-21T10:31:44.851Z,2.83
2019-04-21T10:34:35.049Z,6.00
2019-04-21T10:37:40.102Z,4.17
2019-04-21T10:40:18.009Z,3.53
2019-04-21T10:43:10.778Z,4.72
2019-04-21T10:45:59.189Z,4.05
2019-04-21T10:48:50.642Z,3.67
2019-04-21T10:51:41.228Z,3.72
2019-04-21T10:54:49.104Z,4.62
2019-04-21T10:57:28.361Z,4.37
2019-04-21T11:00:19.294Z,6.60
2019-04-21T11:03:27.030Z,5.60
2019-04-21T11:06:19.300Z,4.37
2019-04-21T11:09:13.966Z,5.37
2019-04-21T11:12:04.121Z,5.22
2019-04-21T11:14:54.169Z,4.55
2019-04-21T11:17:45.554Z,4.65
2019-04-21T11:20:37.154Z,4.92
2019-04-21T11:23:27.032Z,3.72
2019-04-21T11:26:18.028Z,4.67
2019-04-21T11:29:08.429Z,4.10
2019-04-21T11:31:58.973Z,3.77
2019-04-21T11:34:49.709Z,3.65
2019-04-21T11:37:42.185Z,3.87
2019-04-21T11:40:33.958Z,6.20
2019-04-21T11:43:24.052Z,4.95
2019-04-21T11:46:14.169Z,5.33
2019-04-21T11:49:04.191Z,3.72
2019-04-21T11:51:55.130Z,4.62
2019-04-21T11:54:46.823Z,8.65
2019-04-21T11:57:42.512Z,5.37
2019-04-21T12:00:29.482Z,3.25
2019-04-21T12:03:20.450Z,2.83
2019-04-21T12:06:13.432Z,4.08
2019-04-21T12:09:05.267Z,3.47
2019-04-21T12:11:57.022Z,3.17
2019-04-21T12:14:59.820Z,2.75
2019-04-21T12:17:52.160Z,4.05
2019-04-21T12:20:43.126Z,2.75
2019-04-21T12:23:34.394Z,3.65
2019-04-21T12:26:24.288Z,10.08
2019-04-21T12:29:14.579Z,2.50
2019-04-21T12:32:26.650Z,5.25
2019-04-21T12:35:17.644Z,3.03
2019-04-21T12:38:08.948Z,5.97
2019-04-21T12:41:00.351Z,3.85
2019-04-21T12:43:50.830Z,2.98
2019-04-21T12:46:40.728Z,3.22
2019-04-21T12:49:31.794Z,2.83
2019-04-21T12:52:22.403Z,2.98
2019-04-21T12:55:13.543Z,3.50
2019-04-21T12:58:05.251Z,2.75
2019-04-21T13:00:56.765Z,2.35
2019-04-21T13:03:47.990Z,3.37
2019-04-21T13:06:39.324Z,3.10
2019-04-21T13:09:31.769Z,2.70
2019-04-21T13:12:20.869Z,4.20
2019-04-21T13:15:11.449Z,4.97
2019-04-21T13:18:02.675Z,3.02
2019-04-21T13:20:54.094Z,3.22
2019-04-21T13:23:45.165Z,11.20
2019-04-21T13:26:43.931Z,2.37
2019-04-21T13:29:30.289Z,3.12
2019-04-21T13:32:21.008Z,2.87
2019-04-21T13:35:12.809Z,5.75
2019-04-21T13:38:04.658Z,5.22
2019-04-21T13:41:27.311Z,6.03
2019-04-21T13:44:15.697Z,4.05
2019-04-21T13:47:07.039Z,6.28
2019-04-21T13:49:59.843Z,3.20
2019-04-21T13:52:48.928Z,9.03
2019-04-21T13:55:40.643Z,8.28
2019-04-21T13:58:32.551Z,11.55
2019-04-21T14:01:23.540Z,2.90
2019-04-21T14:04:13.663Z,2.55
2019-04-21T14:07:03.949Z,4.72
2019-04-21T14:09:59.678Z,3.10
2019-04-21T14:12:46.830Z,3.12
2019-04-21T14:15:37.774Z,4.25
2019-04-21T14:18:28.913Z,5.78
2019-04-21T14:21:21.033Z,8.75
2019-04-21T14:24:12.828Z,2.90
2019-04-21T14:27:02.893Z,7.55
2019-04-21T14:29:53.537Z,5.60
2019-04-21T14:32:44.326Z,3.30
2019-04-21T14:35:36.709Z,3.12
2019-04-21T14:38:27.189Z,3.33
2019-04-21T14:41:17.866Z,2.98
2019-04-21T14:44:09.149Z,2.22
2019-04-21T14:47:21.049Z,4.55
2019-04-21T14:50:34.435Z,3.77
2019-04-21T14:53:27.743Z,2.80
2019-04-21T14:56:19.334Z,4.53
2019-04-21T14:59:10.946Z,2.33
2019-04-21T15:02:02.196Z,2.70
2019-04-21T15:04:53.625Z,3.58
2019-04-21T15:07:45.379Z,1.77
2019-04-21T15:10:36.762Z,3.17
2019-04-21T15:13:28.068Z,3.70
2019-04-21T15:16:18.754Z,2.35
2019-04-21T15:19:10.806Z,2.87
2019-04-21T15:22:00.932Z,3.70
2019-04-21T15:24:52.029Z,2.55
2019-04-21T15:27:43.164Z,2.25
2019-04-21T15:30:34.418Z,2.47
2019-04-21T15:33:26.459Z,3.05
2019-04-21T15:36:17.078Z,2.98
2019-04-21T15:39:10.011Z,2.20
2019-04-21T15:42:00.802Z,3.87
2019-04-21T15:44:52.428Z,3.80
2019-04-21T15:47:42.358Z,2.47
2019-04-21T15:50:33.049Z,4.20
2019-04-21T15:53:23.920Z,2.17
2019-04-21T15:56:27.021Z,2.10
2019-04-21T15:59:35.129Z,4.17
2019-04-21T16:02:42.583Z,7.55
2019-04-21T16:05:33.229Z,2.27
2019-04-21T16:08:25.049Z,2.33
2019-04-21T16:11:15.761Z,2.45
2019-04-21T16:14:08.086Z,5.37
2019-04-21T16:16:59.082Z,3.45
2019-04-21T16:19:50.151Z,5.17
2019-04-21T16:22:40.054Z,3.47
2019-04-21T16:25:30.834Z,4.42
2019-04-21T16:28:21.662Z,2.85
2019-04-21T16:31:12.329Z,4.47
2019-04-21T16:34:03.117Z,4.95
2019-04-21T16:36:53.955Z,7.42
2019-04-21T16:39:45.342Z,6.87
2019-04-21T16:42:36.411Z,5.67
2019-04-21T16:45:26.217Z,1.90
2019-04-21T16:48:16.979Z,7.70
2019-04-21T16:51:07.952Z,1.98
2019-04-21T16:54:01.970Z,2.77
2019-04-21T16:57:02.017Z,4.47
2019-04-21T16:59:55.048Z,3.27
2019-04-21T17:02:46.372Z,4.12
2019-04-21T17:05:38.363Z,3.10
2019-04-21T17:08:31.841Z,2.47
2019-04-21T17:11:27.367Z,2.10
2019-04-21T17:14:34.626Z,2.10
2019-04-21T17:17:29.279Z,4.30
2019-04-21T17:20:13.000Z,1.93
2019-04-21T17:22:51.408Z,1.93
2019-04-21T17:25:43.291Z,3.77
2019-04-21T17:28:34.336Z,2.00
2019-04-21T17:31:24.633Z,2.47
2019-04-21T17:34:20.097Z,2.70
2019-04-21T17:37:08.739Z,4.03
2019-04-21T17:40:03.444Z,3.70
2019-04-21T17:42:59.766Z,4.00
2019-04-21T17:45:43.130Z,8.33
2019-04-21T17:48:34.686Z,2.53
2019-04-21T17:52:01.057Z,2.60
2019-04-21T17:54:52.654Z,7.00
2019-04-21T17:57:59.466Z,2.23
2019-04-21T18:01:12.938Z,4.00
2019-04-21T18:03:52.275Z,18.97
2019-04-21T18:06:54.067Z,11.83
2019-04-21T18:09:56.635Z,25.20
2019-04-21T18:12:36.114Z,12.90
2019-04-21T18:15:29.036Z,11.13
2019-04-21T18:18:08.360Z,14.07
2019-04-21T18:21:06.948Z,3.53
2019-04-21T18:24:07.339Z,2.57
2019-04-21T18:26:57.249Z,4.97
2019-04-21T18:29:46.753Z,3.17
2019-04-21T18:32:39.717Z,2.47
2019-04-21T18:35:51.682Z,1.87
2019-04-21T18:39:10.194Z,2.10
2019-04-21T18:42:04.793Z,2.40
2019-04-21T18:45:34.382Z,3.03
2019-04-21T18:48:09.444Z,4.53
2019-04-21T18:51:35.958Z,3.33
2019-04-21T18:54:36.060Z,3.23
2019-04-21T18:57:22.918Z,1.90
2019-04-21T19:00:15.285Z,1.77
2019-04-21T19:02:59.553Z,3.20
2019-04-21T19:05:54.475Z,10.90
2019-04-21T19:08:59.560Z,12.23
2019-04-21T19:11:52.403Z,7.20
2019-04-21T19:14:40.162Z,1.83
2019-04-21T19:18:05.310Z,3.90
2019-04-21T19:20:25.573Z,4.22
2019-04-21T19:23:18.893Z,3.97
2019-04-21T19:26:23.382Z,4.40
2019-04-21T19:29:03.627Z,11.67
2019-04-21T19:31:54.959Z,11.53
2019-04-21T19:34:34.809Z,14.50
2019-04-21T19:37:25.966Z,4.10
2019-04-21T19:40:31.398Z,8.73
2019-04-21T19:43:31.456Z,16.07
2019-04-21T19:46:19.338Z,11.20
2019-04-21T19:49:21.106Z,11.97
2019-04-21T19:51:56.266Z,9.13
2019-04-21T19:54:44.443Z,10.10
2019-04-21T19:57:31.389Z,15.83
2019-04-21T20:00:22.352Z,21.03
2019-04-21T20:03:14.478Z,15.63
2019-04-21T20:06:14.873Z,12.73
2019-04-21T20:09:17.869Z,8.60
2019-04-21T20:12:03.672Z,6.47
2019-04-21T20:15:14.833Z,5.33
2019-04-21T20:17:51.545Z,5.67
2019-04-21T20:20:25.003Z,8.13
2019-04-21T20:23:22.811Z,5.90
2019-04-21T20:26:10.129Z,5.87
2019-04-21T20:29:15.651Z,4.40
2019-04-21T20:32:15.778Z,3.60
2019-04-21T20:35:07.068Z,4.63
2019-04-21T20:37:56.299Z,4.17
2019-04-21T20:40:39.712Z,3.00
2019-04-21T20:46:31.595Z,5.17
2019-04-21T20:49:15.666Z,4.20
2019-04-21T20:52:17.529Z,3.13
2019-04-21T20:55:02.194Z,2.57
2019-04-21T20:57:46.446Z,5.70
2019-04-21T21:01:04.152Z,4.33
2019-04-21T21:03:42.268Z,4.27
2019-04-21T21:06:26.366Z,4.83
2019-04-21T21:09:22.200Z,5.30
2019-04-21T21:12:40.717Z,7.30
2019-04-21T21:15:00.053Z,4.60
2019-04-21T21:18:06.302Z,6.43
2019-04-21T21:20:48.346Z,6.73
2019-04-21T21:23:42.517Z,4.20
2019-04-21T21:26:31.378Z,7.67
2019-04-21T21:29:29.293Z,8.00
2019-04-21T21:32:33.390Z,4.43
2019-04-21T21:35:08.020Z,5.93
2019-04-21T21:38:04.536Z,5.20
2019-04-21T21:40:51.454Z,3.93
2019-04-21T21:43:28.714Z,6.50
2019-04-21T21:46:35.541Z,5.20
2019-04-21T21:49:27.893Z,4.93
2019-04-21T21:52:09.324Z,5.60
2019-04-21T21:54:55.918Z,5.60
2019-04-21T21:57:50.384Z,7.10
2019-04-21T22:00:42.931Z,7.50
2019-04-21T22:03:59.156Z,6.33
2019-04-21T22:06:50.697Z,6.57
2019-04-21T22:09:34.670Z,6.87
2019-04-21T22:12:26.103Z,6.63
2019-04-21T22:15:22.338Z,6.33
2019-04-21T22:18:30.312Z,8.07
2019-04-21T22:21:12.830Z,6.93
2019-04-21T22:24:02.807Z,11.37
2019-04-21T22:26:47.296Z,6.87
2019-04-21T22:29:41.809Z,14.77
2019-04-21T22:32:31.461Z,6.00
2019-04-21T22:35:27.313Z,7.87
2019-04-21T22:38:28.625Z,8.53
2019-04-21T22:41:15.808Z,13.23
2019-04-21T22:43:59.287Z,7.13
2019-04-21T22:46:59.883Z,6.97
2019-04-21T22:49:41.007Z,6.10
2019-04-21T22:52:32.354Z,8.20
2019-04-21T22:55:26.073Z,8.50
2019-04-21T22:58:22.996Z,7.83
2019-04-21T23:01:08.783Z,10.70
2019-04-21T23:04:01.359Z,13.20
2019-04-21T23:06:56.579Z,7.93
2019-04-21T23:09:41.350Z,7.43
2019-04-21T23:12:36.262Z,8.70
2019-04-21T23:15:29.074Z,8.20
2019-04-21T23:18:30.554Z,10.17
2019-04-21T23:21:23.417Z,7.47
2019-04-21T23:24:17.803Z,7.10
2019-04-21T23:27:05.141Z,9.07
2019-04-21T23:30:08.418Z,6.93
2019-04-21T23:32:42.237Z,21.27
2019-04-21T23:35:30.397Z,11.87
2019-04-21T23:38:16.639Z,15.63
2019-04-21T23:41:11.119Z,13.47
2019-04-21T23:44:05.142Z,9.53
2019-04-21T23:46:57.545Z,8.80
2019-04-21T23:49:53.151Z,9.97
2019-04-21T23:52:37.476Z,10.20
2019-04-21T23:55:27.435Z,9.83
2019-04-21T23:58:22.205Z,8.80
